createdAt,value
2022-10-31T00:01:48.571Z,5.50
2022-10-31T00:04:15.401Z,3.00
2022-10-31T00:06:42.272Z,3.00
2022-10-31T00:09:11.095Z,3.00
2022-10-31T00:11:37.995Z,3.75
2022-10-31T00:14:05.108Z,9.00
2022-10-31T00:16:32.185Z,3.25
2022-10-31T00:19:01.531Z,6.25
2022-10-31T00:21:29.460Z,12.75
2022-10-31T00:23:56.389Z,7.75
2022-10-31T00:26:23.346Z,2.25
2022-10-31T00:28:50.462Z,11.25
2022-10-31T00:31:18.291Z,6.25
2022-10-31T00:33:45.316Z,7.00
2022-10-31T00:36:15.339Z,11.00
2022-10-31T00:38:43.275Z,4.75
2022-10-31T00:41:11.604Z,1.75
2022-10-31T00:43:41.884Z,1.00
2022-10-31T00:46:09.587Z,9.25
2022-10-31T00:48:36.348Z,13.00
2022-10-31T00:51:03.434Z,11.00
2022-10-31T00:53:30.359Z,3.50
2022-10-31T00:55:57.251Z,7.00
2022-10-31T00:58:24.203Z,8.50
2022-10-31T01:00:51.996Z,10.00
2022-10-31T01:03:18.909Z,3.25
2022-10-31T01:05:45.737Z,1.00
2022-10-31T01:08:12.566Z,1.00
2022-10-31T01:10:39.414Z,2.00
2022-10-31T01:13:06.421Z,7.75
2022-10-31T01:15:33.261Z,9.00
2022-10-31T01:18:00.226Z,3.00
2022-10-31T01:20:29.682Z,5.25
2022-10-31T01:22:56.452Z,8.00
2022-10-31T01:25:24.469Z,10.50
2022-10-31T01:27:51.437Z,3.00
2022-10-31T01:30:18.228Z,5.25
2022-10-31T01:32:45.066Z,12.75
2022-10-31T01:35:11.933Z,8.75
2022-10-31T01:37:38.796Z,8.75
2022-10-31T01:40:06.250Z,8.00
2022-10-31T01:42:33.087Z,1.75
2022-10-31T01:45:02.274Z,1.00
2022-10-31T01:47:38.850Z,1.00
2022-10-31T01:50:13.981Z,7.25
2022-10-31T01:52:50.337Z,10.00
2022-10-31T01:55:35.053Z,12.00
2022-10-31T01:58:10.635Z,9.00
2022-10-31T02:00:38.073Z,9.00
2022-10-31T02:03:05.279Z,3.00
2022-10-31T02:05:32.811Z,8.50
2022-10-31T02:08:09.537Z,3.00
2022-10-31T02:10:38.090Z,3.00
2022-10-31T02:13:08.527Z,9.25
2022-10-31T02:15:46.311Z,5.75
2022-10-31T02:18:13.378Z,2.00
2022-10-31T02:20:58.397Z,1.00
2022-10-31T02:23:57.732Z,7.00
2022-10-31T02:26:50.235Z,1.75
2022-10-31T02:29:28.538Z,1.00
2022-10-31T02:32:39.226Z,5.25
2022-10-31T02:35:26.318Z,9.00
2022-10-31T02:38:13.697Z,3.25
2022-10-31T02:40:52.184Z,1.25
2022-10-31T02:43:40.059Z,8.00
2022-10-31T02:46:29.572Z,4.00
2022-10-31T02:49:04.041Z,1.00
2022-10-31T02:51:31.321Z,4.00
2022-10-31T02:53:58.094Z,2.25
2022-10-31T02:56:25.011Z,5.00
2022-10-31T02:59:01.524Z,3.00
2022-10-31T03:01:36.036Z,7.00
2022-10-31T03:04:30.849Z,3.00
2022-10-31T03:07:16.431Z,1.00
2022-10-31T03:10:04.296Z,7.75
2022-10-31T03:13:04.782Z,3.00
2022-10-31T03:15:34.785Z,3.00
2022-10-31T03:18:09.154Z,7.00
2022-10-31T03:20:44.873Z,3.00
2022-10-31T03:23:17.548Z,1.00
2022-10-31T03:25:50.417Z,7.00
2022-10-31T03:28:23.224Z,3.00
2022-10-31T03:30:53.148Z,3.00
2022-10-31T03:33:27.165Z,2.00
2022-10-31T03:35:58.581Z,1.00
2022-10-31T03:38:26.937Z,7.75
2022-10-31T03:40:59.309Z,11.00
2022-10-31T03:43:33.194Z,2.75
2022-10-31T03:46:00.560Z,1.00
2022-10-31T03:48:28.510Z,1.00
2022-10-31T03:51:13.647Z,5.50
2022-10-31T03:53:47.406Z,9.50
2022-10-31T03:56:46.154Z,3.00
2022-10-31T03:59:35.750Z,6.25
2022-10-31T04:02:12.177Z,3.00
2022-10-31T04:04:41.019Z,6.00
2022-10-31T04:07:10.280Z,3.50
2022-10-31T04:09:43.628Z,0.00
2022-10-31T04:12:15.080Z,0.00
2022-10-31T04:14:55.889Z,6.50
2022-10-31T04:17:28.338Z,4.50
2022-10-31T04:19:55.947Z,8.25
2022-10-31T04:22:22.818Z,3.50
2022-10-31T04:24:49.682Z,9.25
2022-10-31T04:27:17.908Z,3.75
2022-10-31T04:29:46.933Z,1.00
2022-10-31T04:32:17.242Z,7.50
2022-10-31T04:34:44.113Z,8.00
2022-10-31T04:37:11.556Z,3.00
2022-10-31T04:39:38.433Z,8.00
2022-10-31T04:42:31.807Z,8.00
2022-10-31T04:45:02.806Z,3.00
2022-10-31T04:47:35.219Z,1.00
2022-10-31T04:50:03.599Z,3.00
2022-10-31T04:52:30.956Z,6.50
2022-10-31T04:54:57.936Z,1.50
2022-10-31T04:57:50.633Z,1.00
2022-10-31T05:00:21.673Z,3.00
2022-10-31T05:02:53.022Z,2.00
2022-10-31T05:05:22.584Z,5.75
2022-10-31T05:07:50.777Z,4.50
2022-10-31T05:10:26.434Z,2.00
2022-10-31T05:13:01.379Z,7.50
2022-10-31T05:15:34.811Z,10.00
2022-10-31T05:18:10.886Z,7.00
2022-10-31T05:20:56.773Z,9.00
2022-10-31T05:23:27.930Z,3.25
2022-10-31T05:25:54.890Z,3.00
2022-10-31T05:28:22.634Z,2.75
2022-10-31T05:30:50.459Z,9.00
2022-10-31T05:33:17.309Z,9.00
2022-10-31T05:36:02.923Z,3.25
2022-10-31T05:38:29.824Z,3.00
2022-10-31T05:41:00.411Z,3.00
2022-10-31T05:43:27.778Z,8.00
2022-10-31T05:45:56.713Z,5.00
2022-10-31T05:48:43.598Z,8.25
2022-10-31T05:51:29.267Z,10.00
2022-10-31T05:53:56.463Z,4.00
2022-10-31T05:56:27.350Z,10.25
2022-10-31T05:58:55.079Z,7.00
2022-10-31T06:01:22.359Z,6.75
2022-10-31T06:03:49.570Z,3.00
2022-10-31T06:06:17.117Z,6.75
2022-10-31T06:08:44.070Z,13.25
2022-10-31T06:11:14.851Z,15.00
2022-10-31T06:14:05.657Z,7.50
2022-10-31T06:16:52.699Z,1.00
2022-10-31T06:19:37.949Z,3.50
2022-10-31T06:22:05.449Z,9.00
2022-10-31T06:24:33.440Z,3.25
2022-10-31T06:27:07.607Z,1.75
2022-10-31T06:29:34.482Z,3.00
2022-10-31T06:32:12.257Z,2.00
2022-10-31T06:34:43.286Z,9.50
2022-10-31T06:37:13.000Z,6.50
2022-10-31T06:39:42.735Z,9.00
2022-10-31T06:42:11.682Z,4.50
2022-10-31T06:44:38.729Z,3.00
2022-10-31T06:47:31.959Z,9.25
2022-10-31T06:50:05.133Z,6.75
2022-10-31T06:52:32.314Z,11.00
2022-10-31T06:54:59.218Z,13.00
2022-10-31T06:57:26.062Z,12.00
2022-10-31T06:59:52.844Z,12.25
2022-10-31T07:02:33.375Z,4.50
2022-10-31T07:05:01.467Z,8.75
2022-10-31T07:07:28.804Z,16.00
2022-10-31T07:09:55.900Z,9.75
2022-10-31T07:12:37.890Z,11.25
2022-10-31T07:15:05.756Z,11.00
2022-10-31T07:17:33.529Z,15.25
2022-10-31T07:20:01.576Z,17.00
2022-10-31T07:22:35.296Z,6.75
2022-10-31T07:25:04.085Z,12.75
2022-10-31T07:27:57.228Z,5.25
2022-10-31T07:30:24.407Z,3.25
2022-10-31T07:32:54.660Z,3.00
2022-10-31T07:35:27.893Z,3.00
2022-10-31T07:38:07.571Z,3.75
2022-10-31T07:40:34.595Z,4.00
2022-10-31T07:43:01.743Z,10.75
2022-10-31T07:45:44.792Z,14.00
2022-10-31T07:48:30.091Z,8.50
2022-10-31T07:51:15.536Z,13.25
2022-10-31T07:54:01.596Z,17.00
2022-10-31T07:56:31.522Z,15.00
2022-10-31T07:58:58.496Z,14.00
2022-10-31T08:01:25.479Z,6.25
2022-10-31T08:04:18.395Z,12.75
2022-10-31T08:07:03.636Z,9.00
2022-10-31T08:09:35.079Z,11.00
2022-10-31T08:12:08.065Z,15.00
2022-10-31T08:14:35.950Z,18.00
2022-10-31T08:17:03.312Z,15.00
2022-10-31T08:19:40.203Z,6.00
2022-10-31T08:22:10.005Z,15.50
2022-10-31T08:24:37.357Z,11.00
2022-10-31T08:27:04.350Z,4.00
2022-10-31T08:29:33.091Z,3.00
2022-10-31T08:31:59.950Z,12.00
2022-10-31T08:34:45.209Z,6.50
2022-10-31T08:37:30.676Z,6.75
2022-10-31T08:39:57.601Z,7.00
2022-10-31T08:42:24.494Z,10.75
2022-10-31T08:44:52.081Z,14.00
2022-10-31T08:47:21.972Z,14.75
2022-10-31T08:49:48.874Z,11.00
2022-10-31T08:52:15.825Z,4.75
2022-10-31T08:54:44.475Z,11.00
2022-10-31T08:57:40.571Z,13.00
2022-10-31T09:00:08.398Z,5.25
2022-10-31T09:03:01.157Z,9.25
2022-10-31T09:05:31.061Z,4.75
2022-10-31T09:08:01.107Z,11.00
2022-10-31T09:10:29.718Z,14.75
2022-10-31T09:13:18.488Z,11.00
2022-10-31T09:15:50.371Z,9.00
2022-10-31T09:18:24.561Z,9.00
2022-10-31T09:21:02.661Z,12.25
2022-10-31T09:23:31.265Z,11.00
2022-10-31T09:26:02.455Z,10.00
2022-10-31T09:28:36.025Z,11.50
2022-10-31T09:31:10.676Z,10.50
2022-10-31T09:33:56.017Z,13.00
2022-10-31T09:36:45.643Z,15.00
2022-10-31T09:39:20.643Z,16.00
2022-10-31T09:42:03.390Z,18.00
2022-10-31T09:44:43.508Z,17.00
2022-10-31T09:47:45.477Z,12.00
2022-10-31T09:50:55.854Z,14.00
2022-10-31T09:54:00.063Z,8.25
2022-10-31T09:56:29.106Z,11.25
2022-10-31T09:59:02.358Z,19.25
2022-10-31T10:02:11.164Z,19.00
2022-10-31T10:05:23.256Z,11.50
2022-10-31T10:08:17.236Z,6.00
2022-10-31T10:11:10.056Z,14.00
2022-10-31T10:14:10.152Z,12.00
2022-10-31T10:17:19.053Z,19.50
2022-10-31T10:20:15.080Z,16.75
2022-10-31T10:22:48.572Z,17.50
2022-10-31T10:25:21.780Z,16.00
2022-10-31T10:28:10.260Z,14.00
2022-10-31T10:31:00.761Z,10.00
2022-10-31T10:34:05.058Z,11.00
2022-10-31T10:36:42.396Z,14.00
2022-10-31T10:39:24.493Z,8.50
2022-10-31T10:41:52.715Z,14.00
2022-10-31T10:44:19.506Z,17.25
2022-10-31T10:46:52.478Z,9.75
2022-10-31T10:49:29.343Z,12.00
2022-10-31T10:52:35.358Z,15.00
2022-10-31T10:55:37.753Z,16.00
2022-10-31T10:58:08.798Z,13.00
2022-10-31T11:00:47.340Z,15.50
2022-10-31T11:03:20.228Z,19.50
2022-10-31T11:05:53.060Z,10.25
2022-10-31T11:08:34.180Z,10.00
2022-10-31T11:11:19.132Z,6.75
2022-10-31T11:13:50.462Z,4.00
2022-10-31T11:16:41.265Z,5.00
2022-10-31T11:19:14.906Z,14.25
2022-10-31T11:21:42.770Z,21.00
2022-10-31T11:24:09.797Z,13.50
2022-10-31T11:26:38.334Z,14.50
2022-10-31T11:29:06.937Z,15.00
2022-10-31T11:31:36.028Z,14.00
2022-10-31T11:34:14.916Z,13.00
2022-10-31T11:36:45.519Z,9.00
2022-10-31T11:39:23.247Z,17.00
2022-10-31T11:41:52.709Z,18.00
2022-10-31T11:44:24.685Z,17.00
2022-10-31T11:47:03.810Z,12.00
2022-10-31T11:49:40.452Z,16.00
2022-10-31T11:52:21.252Z,13.00
2022-10-31T11:54:57.218Z,16.25
2022-10-31T11:57:43.919Z,13.50
2022-10-31T12:00:30.831Z,19.00
2022-10-31T12:03:22.861Z,10.75
2022-10-31T12:06:10.824Z,15.00
2022-10-31T12:08:42.213Z,9.75
2022-10-31T12:11:12.091Z,15.00
2022-10-31T12:14:08.458Z,18.00
2022-10-31T12:17:17.407Z,17.00
2022-10-31T12:20:11.898Z,18.00
2022-10-31T12:22:57.689Z,8.25
2022-10-31T12:25:40.090Z,6.00
2022-10-31T12:28:29.832Z,12.75
2022-10-31T12:31:15.090Z,12.00
2022-10-31T12:33:49.318Z,8.00
2022-10-31T12:36:28.139Z,5.50
2022-10-31T12:39:08.298Z,5.00
2022-10-31T12:41:53.720Z,12.75
2022-10-31T12:44:45.120Z,18.75
2022-10-31T12:47:23.943Z,19.75
2022-10-31T12:49:56.414Z,9.75
2022-10-31T12:53:09.602Z,6.00
2022-10-31T12:55:48.921Z,12.75
2022-10-31T12:58:25.282Z,9.00
2022-10-31T13:01:16.409Z,5.50
2022-10-31T13:03:43.461Z,12.75
2022-10-31T13:06:19.969Z,16.00
2022-10-31T13:08:53.425Z,17.00
2022-10-31T13:11:26.918Z,10.50
2022-10-31T13:13:58.887Z,12.00
2022-10-31T13:16:31.738Z,8.25
2022-10-31T13:19:04.881Z,13.75
2022-10-31T13:21:38.583Z,11.00
2022-10-31T13:24:14.500Z,5.75
2022-10-31T13:26:56.483Z,4.00
2022-10-31T13:29:46.566Z,12.75
2022-10-31T13:32:13.950Z,18.00
2022-10-31T13:34:52.775Z,9.50
2022-10-31T13:37:37.999Z,6.00
2022-10-31T13:40:07.905Z,4.25
2022-10-31T13:42:53.138Z,12.25
2022-10-31T13:45:23.054Z,10.00
2022-10-31T13:48:01.136Z,16.25
2022-10-31T13:50:31.323Z,12.50
2022-10-31T13:53:19.620Z,14.25
2022-10-31T13:55:49.565Z,13.00
2022-10-31T13:58:27.699Z,16.75
2022-10-31T14:01:18.426Z,15.00
2022-10-31T14:04:12.221Z,17.00
2022-10-31T14:06:44.122Z,13.00
2022-10-31T14:09:33.361Z,13.00
2022-10-31T14:12:08.581Z,15.50
2022-10-31T14:14:48.846Z,8.00
2022-10-31T14:17:21.167Z,4.00
2022-10-31T14:20:17.340Z,10.75
2022-10-31T14:22:44.281Z,11.00
2022-10-31T14:25:31.802Z,15.75
2022-10-31T14:28:00.825Z,11.25
2022-10-31T14:30:29.957Z,9.00
2022-10-31T14:33:01.100Z,15.75
2022-10-31T14:36:20.072Z,12.00
2022-10-31T14:39:05.733Z,12.00
2022-10-31T14:41:54.404Z,9.50
2022-10-31T14:44:58.825Z,11.50
2022-10-31T14:47:25.846Z,11.50
2022-10-31T14:50:29.875Z,14.75
2022-10-31T14:53:01.693Z,8.25
2022-10-31T14:55:29.128Z,7.50
2022-10-31T14:58:01.208Z,14.75
2022-10-31T15:00:30.146Z,8.75
2022-10-31T15:03:25.307Z,4.75
2022-10-31T15:05:59.404Z,12.00
2022-10-31T15:08:44.919Z,15.00
2022-10-31T15:11:11.788Z,14.00
2022-10-31T15:14:22.389Z,17.00
2022-10-31T15:16:49.685Z,10.25
2022-10-31T15:19:22.908Z,10.50
2022-10-31T15:21:53.299Z,6.75
2022-10-31T15:24:20.890Z,12.00
2022-10-31T15:26:55.023Z,10.00
2022-10-31T15:29:24.694Z,17.00
2022-10-31T15:31:56.561Z,8.00
2022-10-31T15:34:36.146Z,12.75
2022-10-31T15:37:13.099Z,13.00
2022-10-31T15:39:40.131Z,8.25
2022-10-31T15:42:50.737Z,14.50
2022-10-31T15:45:24.723Z,9.00
2022-10-31T15:48:04.328Z,5.00
2022-10-31T15:50:31.608Z,5.00
2022-10-31T15:53:00.058Z,4.25
2022-10-31T15:55:30.225Z,10.25
2022-10-31T15:57:59.791Z,11.00
2022-10-31T16:00:34.571Z,15.75
2022-10-31T16:03:11.371Z,17.00
2022-10-31T16:05:52.215Z,11.00
2022-10-31T16:08:38.109Z,11.50
2022-10-31T16:11:11.044Z,7.00
2022-10-31T16:13:43.057Z,4.25
2022-10-31T16:19:14.510Z,6.50
2022-10-31T16:21:52.885Z,2.00
2022-10-31T16:24:46.808Z,4.00
2022-10-31T16:27:23.956Z,10.50
2022-10-31T16:30:01.476Z,12.00
2022-10-31T16:32:53.130Z,11.25
2022-10-31T16:35:30.129Z,11.00
2022-10-31T16:37:57.031Z,5.00
2022-10-31T16:40:25.197Z,7.25
2022-10-31T16:42:53.038Z,3.25
2022-10-31T16:45:22.822Z,3.00
2022-10-31T16:47:51.470Z,7.00
2022-10-31T16:53:13.924Z,11.25
2022-10-31T16:55:54.748Z,9.50
2022-10-31T16:58:41.878Z,9.25
2022-10-31T17:01:08.962Z,15.25
2022-10-31T17:03:36.430Z,9.00
2022-10-31T17:06:04.057Z,3.00
2022-10-31T17:08:31.004Z,2.00
2022-10-31T17:10:59.364Z,3.25
2022-10-31T17:13:29.885Z,3.25
2022-10-31T17:15:59.715Z,3.00
2022-10-31T17:18:27.982Z,10.00
2022-10-31T17:21:00.502Z,11.75
2022-10-31T17:23:28.237Z,5.00
2022-10-31T17:25:55.561Z,7.00
2022-10-31T17:28:22.443Z,7.00
2022-10-31T17:30:49.785Z,8.00
2022-10-31T17:33:18.050Z,7.00
2022-10-31T17:35:48.089Z,9.25
2022-10-31T17:38:14.921Z,11.00
2022-10-31T17:40:42.029Z,5.00
2022-10-31T17:43:10.773Z,4.00
2022-10-31T17:45:41.923Z,3.00
2022-10-31T17:48:12.806Z,6.75
2022-10-31T17:50:40.065Z,5.50
2022-10-31T17:53:07.099Z,3.00
2022-10-31T17:55:37.120Z,6.75
2022-10-31T17:58:05.601Z,8.75
2022-10-31T18:00:35.897Z,6.50
2022-10-31T18:03:04.084Z,12.75
2022-10-31T18:05:31.822Z,8.00
2022-10-31T18:08:00.957Z,2.25
2022-10-31T18:10:31.082Z,7.75
2022-10-31T18:12:58.649Z,9.00
2022-10-31T18:15:25.909Z,9.00
2022-10-31T18:17:53.150Z,14.00
2022-10-31T18:20:20.335Z,10.00
2022-10-31T18:22:47.192Z,7.00
2022-10-31T18:25:14.153Z,7.25
2022-10-31T18:27:42.185Z,13.50
2022-10-31T18:30:10.029Z,8.25
2022-10-31T18:32:37.071Z,11.75
2022-10-31T18:35:04.369Z,14.00
2022-10-31T18:37:31.564Z,8.25
2022-10-31T18:39:58.708Z,3.00
2022-10-31T18:42:25.684Z,2.00
2022-10-31T18:44:52.642Z,1.75
2022-10-31T18:47:22.597Z,11.75
2022-10-31T18:49:49.606Z,14.00
2022-10-31T18:52:16.787Z,15.75
2022-10-31T18:54:43.877Z,16.00
2022-10-31T18:57:10.718Z,9.25
2022-10-31T18:59:37.860Z,8.50
2022-10-31T19:02:04.899Z,8.50
2022-10-31T19:04:31.922Z,14.00
2022-10-31T19:06:58.748Z,13.75
2022-10-31T19:09:25.875Z,11.00
2022-10-31T19:11:52.761Z,4.75
2022-10-31T19:14:19.697Z,7.00
2022-10-31T19:16:46.598Z,11.00
2022-10-31T19:19:15.020Z,4.75
2022-10-31T19:21:41.874Z,3.75
2022-10-31T19:24:09.397Z,10.00
2022-10-31T19:26:36.146Z,7.00
2022-10-31T19:29:03.116Z,3.00
2022-10-31T19:31:30.361Z,3.00
2022-10-31T19:33:57.872Z,2.00
2022-10-31T19:36:24.712Z,3.00
2022-10-31T19:38:53.052Z,5.75
2022-10-31T19:41:21.339Z,10.00
2022-10-31T19:43:48.574Z,9.00
2022-10-31T19:46:22.845Z,14.25
2022-10-31T19:48:55.246Z,14.00
2022-10-31T19:51:22.262Z,5.25
2022-10-31T19:53:49.286Z,2.00
2022-10-31T19:56:21.050Z,8.25
2022-10-31T19:58:48.408Z,12.50
2022-10-31T20:01:20.545Z,6.50
2022-10-31T20:03:48.175Z,3.00
2022-10-31T20:06:30.699Z,7.00
2022-10-31T20:08:58.600Z,12.00
2022-10-31T20:11:27.632Z,15.00
2022-10-31T20:13:59.382Z,5.25
2022-10-31T20:16:27.673Z,3.50
2022-10-31T20:18:55.048Z,1.00
2022-10-31T20:21:25.277Z,10.75
2022-10-31T20:24:00.148Z,11.00
2022-10-31T20:26:28.115Z,13.00
2022-10-31T20:28:59.204Z,7.50
2022-10-31T20:31:29.445Z,9.00
2022-10-31T20:33:56.727Z,16.75
2022-10-31T20:36:24.630Z,9.25
2022-10-31T20:38:52.422Z,12.25
2022-10-31T20:41:19.321Z,14.00
2022-10-31T20:43:46.191Z,13.00
2022-10-31T20:46:18.975Z,13.00
2022-10-31T20:48:46.637Z,8.00
2022-10-31T20:53:49.551Z,10.00
2022-10-31T20:56:19.046Z,13.50
2022-10-31T20:58:46.683Z,10.00
2022-10-31T21:01:16.654Z,11.00
2022-10-31T21:03:44.379Z,12.00
2022-10-31T21:06:12.177Z,17.75
2022-10-31T21:08:39.870Z,12.50
2022-10-31T21:11:09.674Z,10.00
2022-10-31T21:13:41.508Z,7.00
2022-10-31T21:16:15.062Z,13.25
2022-10-31T21:18:44.092Z,16.00
2022-10-31T21:21:32.695Z,16.00
2022-10-31T21:24:03.173Z,17.00
2022-10-31T21:26:32.976Z,15.00
2022-10-31T21:29:00.789Z,11.00
2022-10-31T21:31:28.150Z,7.00
2022-10-31T21:33:55.257Z,11.00
2022-10-31T21:36:22.100Z,18.25
2022-10-31T21:38:52.643Z,19.00
2022-10-31T21:41:20.509Z,16.00
2022-10-31T21:43:49.476Z,13.00
2022-10-31T21:46:19.250Z,12.00
2022-10-31T21:48:46.811Z,11.00
2022-10-31T21:51:21.758Z,10.25
2022-10-31T21:53:49.594Z,14.25
2022-10-31T21:56:16.644Z,15.00
2022-10-31T21:58:43.462Z,9.00
2022-10-31T22:01:10.499Z,8.00
2022-10-31T22:03:38.911Z,4.25
2022-10-31T22:06:07.585Z,14.50
2022-10-31T22:08:34.843Z,12.50
2022-10-31T22:11:03.340Z,13.75
2022-10-31T22:13:31.680Z,12.00
2022-10-31T22:16:02.823Z,11.00
2022-10-31T22:18:29.800Z,6.00
2022-10-31T22:21:11.459Z,11.75
2022-10-31T22:23:38.995Z,10.25
2022-10-31T22:26:08.398Z,10.00
2022-10-31T22:28:35.933Z,12.50
2022-10-31T22:31:06.772Z,17.75
2022-10-31T22:33:34.027Z,12.25
2022-10-31T22:36:06.663Z,14.75
2022-10-31T22:38:35.363Z,12.00
2022-10-31T22:41:02.212Z,7.00
2022-10-31T22:43:29.202Z,13.25
2022-10-31T22:45:57.521Z,12.00
2022-10-31T22:48:24.382Z,12.00
2022-10-31T22:50:51.185Z,17.75
2022-10-31T22:53:18.174Z,20.00
2022-10-31T22:55:44.984Z,11.25
2022-10-31T22:58:12.170Z,13.00
2022-10-31T23:00:39.220Z,12.00
2022-10-31T23:03:06.249Z,16.00
2022-10-31T23:05:33.070Z,18.00
2022-10-31T23:08:00.263Z,12.00
2022-10-31T23:10:27.342Z,17.75
2022-10-31T23:12:54.265Z,12.75
2022-10-31T23:15:21.096Z,11.00
2022-10-31T23:17:47.894Z,10.00
2022-10-31T23:20:14.727Z,12.00
2022-10-31T23:22:41.636Z,13.75
2022-10-31T23:25:08.755Z,13.75
2022-10-31T23:27:35.673Z,9.00
2022-10-31T23:30:02.475Z,13.75
2022-10-31T23:32:32.528Z,12.50
2022-10-31T23:35:04.876Z,17.00
2022-10-31T23:37:33.523Z,11.00
2022-10-31T23:40:00.477Z,13.50
2022-10-31T23:42:28.366Z,18.00
2022-10-31T23:44:55.796Z,21.25
2022-10-31T23:47:22.886Z,11.75
2022-10-31T23:49:49.774Z,13.00
2022-10-31T23:52:17.282Z,15.75
2022-10-31T23:54:44.146Z,18.75
2022-10-31T23:57:13.091Z,12.25
2022-10-31T23:59:40.110Z,13.25
